sensor_id;sensor_type;location;lat;lon;timestamp;P1;durP1;ratioP1;P2;durP2;ratioP2
44048;SDS011;29717;47.028;15.470;2022-07-29T00:01:29;7.05;;;6.03;;
44048;SDS011;29717;47.028;15.470;2022-07-29T00:03:56;7.95;;;5.93;;
44048;SDS011;29717;47.028;15.470;2022-07-29T00:06:23;7.75;;;5.88;;
44048;SDS011;29717;47.028;15.470;2022-07-29T00:08:50;6.05;;;5.45;;
44048;SDS011;29717;47.028;15.470;2022-07-29T00:11:19;7.15;;;6.00;;
44048;SDS011;29717;47.028;15.470;2022-07-29T00:13:45;8.38;;;6.38;;
44048;SDS011;29717;47.028;15.470;2022-07-29T00:16:12;7.22;;;6.00;;
44048;SDS011;29717;47.028;15.470;2022-07-29T00:18:39;6.28;;;5.70;;
44048;SDS011;29717;47.028;15.470;2022-07-29T00:21:06;7.72;;;5.97;;
44048;SDS011;29717;47.028;15.470;2022-07-29T00:23:32;6.63;;;6.03;;
44048;SDS011;29717;47.028;15.470;2022-07-29T00:25:59;6.32;;;5.72;;
44048;SDS011;29717;47.028;15.470;2022-07-29T00:28:28;8.48;;;5.65;;
44048;SDS011;29717;47.028;15.470;2022-07-29T00:30:55;8.95;;;6.47;;
44048;SDS011;29717;47.028;15.470;2022-07-29T00:33:21;8.20;;;5.95;;
44048;SDS011;29717;47.028;15.470;2022-07-29T00:35:48;6.72;;;6.07;;
44048;SDS011;29717;47.028;15.470;2022-07-29T00:38:15;6.28;;;5.68;;
44048;SDS011;29717;47.028;15.470;2022-07-29T00:40:43;7.10;;;6.00;;
44048;SDS011;29717;47.028;15.470;2022-07-29T00:43:10;6.35;;;5.70;;
44048;SDS011;29717;47.028;15.470;2022-07-29T00:45:39;7.03;;;6.32;;
44048;SDS011;29717;47.028;15.470;2022-07-29T00:48:06;7.28;;;6.03;;
44048;SDS011;29717;47.028;15.470;2022-07-29T00:50:34;6.57;;;5.88;;
44048;SDS011;29717;47.028;15.470;2022-07-29T00:53:02;8.45;;;6.03;;
44048;SDS011;29717;47.028;15.470;2022-07-29T00:55:29;8.20;;;6.05;;
44048;SDS011;29717;47.028;15.470;2022-07-29T00:57:57;7.35;;;6.65;;
44048;SDS011;29717;47.028;15.470;2022-07-29T01:48:52;7.40;;;6.70;;
44048;SDS011;29717;47.028;15.470;2022-07-29T01:51:41;6.97;;;6.28;;
44048;SDS011;29717;47.028;15.470;2022-07-29T02:02:12;8.10;;;6.05;;
44048;SDS011;29717;47.028;15.470;2022-07-29T02:04:41;8.85;;;6.45;;
44048;SDS011;29717;47.028;15.470;2022-07-29T02:07:10;6.32;;;5.72;;
44048;SDS011;29717;47.028;15.470;2022-07-29T02:09:38;8.05;;;6.30;;
44048;SDS011;29717;47.028;15.470;2022-07-29T02:12:07;6.30;;;5.80;;
44048;SDS011;29717;47.028;15.470;2022-07-29T02:14:36;8.38;;;6.65;;
44048;SDS011;29717;47.028;15.470;2022-07-29T02:17:03;6.57;;;6.07;;
44048;SDS011;29717;47.028;15.470;2022-07-29T02:19:31;6.60;;;6.10;;
44048;SDS011;29717;47.028;15.470;2022-07-29T02:22:00;6.50;;;5.95;;
44048;SDS011;29717;47.028;15.470;2022-07-29T02:24:28;7.13;;;6.43;;
44048;SDS011;29717;47.028;15.470;2022-07-29T02:26:56;8.07;;;6.50;;
44048;SDS011;29717;47.028;15.470;2022-07-29T02:29:26;6.15;;;5.65;;
44048;SDS011;29717;47.028;15.470;2022-07-29T02:31:53;6.93;;;6.28;;
44048;SDS011;29717;47.028;15.470;2022-07-29T02:34:21;7.05;;;6.40;;
44048;SDS011;29717;47.028;15.470;2022-07-29T02:36:48;6.85;;;6.15;;
44048;SDS011;29717;47.028;15.470;2022-07-29T02:39:17;6.53;;;6.00;;
44048;SDS011;29717;47.028;15.470;2022-07-29T02:41:45;8.82;;;7.00;;
44048;SDS011;29717;47.028;15.470;2022-07-29T02:44:14;7.55;;;6.90;;
44048;SDS011;29717;47.028;15.470;2022-07-29T02:46:42;9.02;;;6.88;;
44048;SDS011;29717;47.028;15.470;2022-07-29T02:49:12;6.63;;;6.13;;
44048;SDS011;29717;47.028;15.470;2022-07-29T02:51:41;7.30;;;6.60;;
44048;SDS011;29717;47.028;15.470;2022-07-29T02:54:09;7.32;;;6.63;;
44048;SDS011;29717;47.028;15.470;2022-07-29T02:56:38;7.38;;;6.70;;
44048;SDS011;29717;47.028;15.470;2022-07-29T02:59:07;7.78;;;6.88;;
44048;SDS011;29717;47.028;15.470;2022-07-29T03:01:34;8.30;;;6.38;;
44048;SDS011;29717;47.028;15.470;2022-07-29T03:04:03;7.38;;;6.68;;
44048;SDS011;29717;47.028;15.470;2022-07-29T03:06:31;9.50;;;6.55;;
44048;SDS011;29717;47.028;15.470;2022-07-29T03:08:59;7.63;;;6.72;;
44048;SDS011;29717;47.028;15.470;2022-07-29T03:11:27;7.63;;;6.85;;
44048;SDS011;29717;47.028;15.470;2022-07-29T03:13:55;7.78;;;7.07;;
44048;SDS011;29717;47.028;15.470;2022-07-29T03:16:22;7.50;;;6.90;;
44048;SDS011;29717;47.028;15.470;2022-07-29T03:18:49;13.02;;;7.13;;
44048;SDS011;29717;47.028;15.470;2022-07-29T03:21:16;7.80;;;6.88;;
44048;SDS011;29717;47.028;15.470;2022-07-29T03:23:43;7.72;;;6.97;;
44048;SDS011;29717;47.028;15.470;2022-07-29T03:26:10;11.05;;;7.15;;
44048;SDS011;29717;47.028;15.470;2022-07-29T03:28:37;8.75;;;6.82;;
44048;SDS011;29717;47.028;15.470;2022-07-29T03:31:05;9.20;;;6.80;;
44048;SDS011;29717;47.028;15.470;2022-07-29T03:33:32;7.53;;;6.63;;
44048;SDS011;29717;47.028;15.470;2022-07-29T03:35:59;7.78;;;6.47;;
44048;SDS011;29717;47.028;15.470;2022-07-29T03:38:27;7.40;;;6.53;;
44048;SDS011;29717;47.028;15.470;2022-07-29T03:40:56;8.48;;;7.45;;
44048;SDS011;29717;47.028;15.470;2022-07-29T03:43:26;9.48;;;6.50;;
44048;SDS011;29717;47.028;15.470;2022-07-29T03:45:56;7.80;;;7.05;;
44048;SDS011;29717;47.028;15.470;2022-07-29T03:48:25;7.65;;;6.95;;
44048;SDS011;29717;47.028;15.470;2022-07-29T03:50:54;7.90;;;7.22;;
44048;SDS011;29717;47.028;15.470;2022-07-29T03:53:21;8.68;;;6.78;;
44048;SDS011;29717;47.028;15.470;2022-07-29T03:55:52;9.38;;;7.35;;
44048;SDS011;29717;47.028;15.470;2022-07-29T03:58:20;8.93;;;6.95;;
44048;SDS011;29717;47.028;15.470;2022-07-29T04:00:47;7.40;;;6.72;;
44048;SDS011;29717;47.028;15.470;2022-07-29T04:03:15;7.65;;;6.95;;
44048;SDS011;29717;47.028;15.470;2022-07-29T04:05:43;7.68;;;6.97;;
44048;SDS011;29717;47.028;15.470;2022-07-29T04:08:10;7.78;;;7.07;;
44048;SDS011;29717;47.028;15.470;2022-07-29T04:10:37;7.85;;;7.15;;
44048;SDS011;29717;47.028;15.470;2022-07-29T04:13:04;7.45;;;6.82;;
44048;SDS011;29717;47.028;15.470;2022-07-29T04:15:31;10.25;;;7.03;;
44048;SDS011;29717;47.028;15.470;2022-07-29T04:17:58;8.77;;;7.28;;
44048;SDS011;29717;47.028;15.470;2022-07-29T04:20:25;10.07;;;7.43;;
44048;SDS011;29717;47.028;15.470;2022-07-29T04:22:53;8.05;;;7.35;;
44048;SDS011;29717;47.028;15.470;2022-07-29T04:25:20;9.27;;;6.82;;
44048;SDS011;29717;47.028;15.470;2022-07-29T04:27:47;9.52;;;7.43;;
44048;SDS011;29717;47.028;15.470;2022-07-29T04:30:29;8.13;;;7.43;;
44048;SDS011;29717;47.028;15.470;2022-07-29T04:32:56;11.57;;;7.88;;
44048;SDS011;29717;47.028;15.470;2022-07-29T04:35:23;9.32;;;8.27;;
44048;SDS011;29717;47.028;15.470;2022-07-29T04:37:49;12.85;;;8.35;;
44048;SDS011;29717;47.028;15.470;2022-07-29T04:40:18;9.20;;;8.30;;
44048;SDS011;29717;47.028;15.470;2022-07-29T04:42:45;8.88;;;8.05;;
44048;SDS011;29717;47.028;15.470;2022-07-29T04:45:12;11.77;;;8.23;;
44048;SDS011;29717;47.028;15.470;2022-07-29T04:47:39;8.55;;;7.60;;
44048;SDS011;29717;47.028;15.470;2022-07-29T04:50:07;9.45;;;8.63;;
44048;SDS011;29717;47.028;15.470;2022-07-29T04:52:33;9.27;;;8.25;;
44048;SDS011;29717;47.028;15.470;2022-07-29T04:55:01;8.60;;;7.68;;
44048;SDS011;29717;47.028;15.470;2022-07-29T04:57:29;8.27;;;7.55;;
44048;SDS011;29717;47.028;15.470;2022-07-29T04:59:56;9.18;;;8.13;;
44048;SDS011;29717;47.028;15.470;2022-07-29T05:02:23;11.10;;;8.10;;
44048;SDS011;29717;47.028;15.470;2022-07-29T05:04:50;8.75;;;7.85;;
44048;SDS011;29717;47.028;15.470;2022-07-29T05:07:16;9.65;;;8.13;;
44048;SDS011;29717;47.028;15.470;2022-07-29T05:09:43;8.15;;;7.35;;
44048;SDS011;29717;47.028;15.470;2022-07-29T05:12:10;12.52;;;8.10;;
44048;SDS011;29717;47.028;15.470;2022-07-29T05:14:38;9.07;;;7.45;;
44048;SDS011;29717;47.028;15.470;2022-07-29T05:17:05;9.93;;;8.15;;
44048;SDS011;29717;47.028;15.470;2022-07-29T05:19:32;9.75;;;7.88;;
44048;SDS011;29717;47.028;15.470;2022-07-29T05:21:58;8.52;;;7.68;;
44048;SDS011;29717;47.028;15.470;2022-07-29T05:24:25;8.80;;;7.68;;
44048;SDS011;29717;47.028;15.470;2022-07-29T05:26:52;8.68;;;7.75;;
44048;SDS011;29717;47.028;15.470;2022-07-29T05:29:19;9.30;;;8.35;;
44048;SDS011;29717;47.028;15.470;2022-07-29T05:31:47;9.07;;;8.18;;
44048;SDS011;29717;47.028;15.470;2022-07-29T05:34:14;9.13;;;8.23;;
44048;SDS011;29717;47.028;15.470;2022-07-29T05:36:41;9.23;;;8.30;;
44048;SDS011;29717;47.028;15.470;2022-07-29T05:39:08;8.93;;;8.02;;
44048;SDS011;29717;47.028;15.470;2022-07-29T05:41:35;9.48;;;7.97;;
44048;SDS011;29717;47.028;15.470;2022-07-29T05:44:02;8.88;;;8.05;;
44048;SDS011;29717;47.028;15.470;2022-07-29T05:46:28;8.38;;;7.38;;
44048;SDS011;29717;47.028;15.470;2022-07-29T05:48:57;8.93;;;7.07;;
44048;SDS011;29717;47.028;15.470;2022-07-29T05:51:24;11.57;;;7.57;;
44048;SDS011;29717;47.028;15.470;2022-07-29T05:53:50;9.55;;;7.60;;
44048;SDS011;29717;47.028;15.470;2022-07-29T05:56:17;8.80;;;7.80;;
44048;SDS011;29717;47.028;15.470;2022-07-29T05:58:44;8.38;;;7.50;;
44048;SDS011;29717;47.028;15.470;2022-07-29T06:01:11;8.25;;;7.10;;
44048;SDS011;29717;47.028;15.470;2022-07-29T06:03:38;7.20;;;6.53;;
44048;SDS011;29717;47.028;15.470;2022-07-29T06:06:07;10.52;;;7.38;;
44048;SDS011;29717;47.028;15.470;2022-07-29T06:08:34;7.95;;;7.20;;
44048;SDS011;29717;47.028;15.470;2022-07-29T06:11:01;8.80;;;6.55;;
44048;SDS011;29717;47.028;15.470;2022-07-29T06:13:28;10.32;;;7.55;;
44048;SDS011;29717;47.028;15.470;2022-07-29T06:15:58;7.55;;;6.75;;
44048;SDS011;29717;47.028;15.470;2022-07-29T06:18:25;10.27;;;6.50;;
44048;SDS011;29717;47.028;15.470;2022-07-29T06:20:52;7.75;;;6.88;;
44048;SDS011;29717;47.028;15.470;2022-07-29T06:23:21;8.55;;;7.38;;
44048;SDS011;29717;47.028;15.470;2022-07-29T06:25:48;6.78;;;6.18;;
44048;SDS011;29717;47.028;15.470;2022-07-29T06:28:15;11.18;;;6.53;;
44048;SDS011;29717;47.028;15.470;2022-07-29T06:30:42;9.20;;;6.38;;
44048;SDS011;29717;47.028;15.470;2022-07-29T06:33:08;11.02;;;6.32;;
44048;SDS011;29717;47.028;15.470;2022-07-29T06:35:35;9.63;;;6.43;;
44048;SDS011;29717;47.028;15.470;2022-07-29T06:38:04;8.02;;;5.90;;
44048;SDS011;29717;47.028;15.470;2022-07-29T06:40:33;7.50;;;5.57;;
44048;SDS011;29717;47.028;15.470;2022-07-29T06:43:17;6.10;;;5.38;;
44048;SDS011;29717;47.028;15.470;2022-07-29T06:45:44;7.40;;;5.57;;
44048;SDS011;29717;47.028;15.470;2022-07-29T06:48:11;7.43;;;5.25;;
44048;SDS011;29717;47.028;15.470;2022-07-29T06:50:38;8.70;;;5.18;;
44048;SDS011;29717;47.028;15.470;2022-07-29T06:53:05;5.40;;;4.90;;
44048;SDS011;29717;47.028;15.470;2022-07-29T06:55:34;5.38;;;4.82;;
44048;SDS011;29717;47.028;15.470;2022-07-29T06:58:02;8.98;;;5.20;;
44048;SDS011;29717;47.028;15.470;2022-07-29T07:00:28;7.63;;;4.72;;
44048;SDS011;29717;47.028;15.470;2022-07-29T07:02:55;8.88;;;4.80;;
44048;SDS011;29717;47.028;15.470;2022-07-29T07:05:22;5.65;;;4.57;;
44048;SDS011;29717;47.028;15.470;2022-07-29T07:07:49;7.93;;;4.68;;
44048;SDS011;29717;47.028;15.470;2022-07-29T07:10:16;5.35;;;4.65;;
44048;SDS011;29717;47.028;15.470;2022-07-29T07:12:44;7.30;;;4.93;;
44048;SDS011;29717;47.028;15.470;2022-07-29T07:15:11;11.90;;;4.60;;
44048;SDS011;29717;47.028;15.470;2022-07-29T07:17:38;6.18;;;4.28;;
44048;SDS011;29717;47.028;15.470;2022-07-29T07:20:06;7.18;;;4.25;;
44048;SDS011;29717;47.028;15.470;2022-07-29T07:22:33;4.85;;;3.88;;
44048;SDS011;29717;47.028;15.470;2022-07-29T07:25:00;9.38;;;4.18;;
44048;SDS011;29717;47.028;15.470;2022-07-29T07:27:27;5.85;;;4.00;;
44048;SDS011;29717;47.028;15.470;2022-07-29T07:29:56;5.28;;;4.00;;
44048;SDS011;29717;47.028;15.470;2022-07-29T07:32:22;4.78;;;3.72;;
44048;SDS011;29717;47.028;15.470;2022-07-29T07:34:49;5.07;;;3.45;;
44048;SDS011;29717;47.028;15.470;2022-07-29T07:37:16;4.40;;;4.00;;
44048;SDS011;29717;47.028;15.470;2022-07-29T07:39:44;4.95;;;3.50;;
44048;SDS011;29717;47.028;15.470;2022-07-29T07:42:11;4.45;;;4.05;;
44048;SDS011;29717;47.028;15.470;2022-07-29T07:44:38;4.32;;;3.45;;
44048;SDS011;29717;47.028;15.470;2022-07-29T07:47:07;4.53;;;3.40;;
44048;SDS011;29717;47.028;15.470;2022-07-29T07:49:33;3.30;;;3.05;;
44048;SDS011;29717;47.028;15.470;2022-07-29T07:52:00;4.22;;;3.63;;
44048;SDS011;29717;47.028;15.470;2022-07-29T07:54:27;4.40;;;3.10;;
44048;SDS011;29717;47.028;15.470;2022-07-29T07:56:54;5.03;;;3.78;;
44048;SDS011;29717;47.028;15.470;2022-07-29T07:59:21;3.97;;;3.40;;
44048;SDS011;29717;47.028;15.470;2022-07-29T08:01:48;5.57;;;3.30;;
44048;SDS011;29717;47.028;15.470;2022-07-29T08:04:16;5.18;;;3.63;;
44048;SDS011;29717;47.028;15.470;2022-07-29T08:06:43;4.88;;;3.10;;
44048;SDS011;29717;47.028;15.470;2022-07-29T08:09:10;4.60;;;3.05;;
44048;SDS011;29717;47.028;15.470;2022-07-29T08:11:38;3.85;;;3.00;;
44048;SDS011;29717;47.028;15.470;2022-07-29T08:14:06;3.20;;;2.90;;
44048;SDS011;29717;47.028;15.470;2022-07-29T08:16:33;3.38;;;2.90;;
44048;SDS011;29717;47.028;15.470;2022-07-29T08:19:00;4.18;;;2.92;;
44048;SDS011;29717;47.028;15.470;2022-07-29T08:21:28;3.17;;;2.45;;
44048;SDS011;29717;47.028;15.470;2022-07-29T08:23:55;2.97;;;2.65;;
44048;SDS011;29717;47.028;15.470;2022-07-29T08:26:43;4.15;;;2.58;;
44048;SDS011;29717;47.028;15.470;2022-07-29T08:29:10;7.13;;;2.90;;
44048;SDS011;29717;47.028;15.470;2022-07-29T08:31:37;4.25;;;3.13;;
44048;SDS011;29717;47.028;15.470;2022-07-29T08:34:04;3.58;;;2.70;;
44048;SDS011;29717;47.028;15.470;2022-07-29T08:36:33;3.72;;;2.53;;
44048;SDS011;29717;47.028;15.470;2022-07-29T08:39:00;6.18;;;3.17;;
44048;SDS011;29717;47.028;15.470;2022-07-29T08:41:27;3.30;;;2.70;;
44048;SDS011;29717;47.028;15.470;2022-07-29T08:43:54;4.85;;;2.78;;
44048;SDS011;29717;47.028;15.470;2022-07-29T08:46:21;3.05;;;2.60;;
44048;SDS011;29717;47.028;15.470;2022-07-29T08:48:48;3.58;;;2.53;;
44048;SDS011;29717;47.028;15.470;2022-07-29T08:51:17;3.47;;;2.95;;
44048;SDS011;29717;47.028;15.470;2022-07-29T08:53:46;3.40;;;2.75;;
44048;SDS011;29717;47.028;15.470;2022-07-29T08:56:14;4.82;;;3.20;;
44048;SDS011;29717;47.028;15.470;2022-07-29T08:58:41;3.28;;;2.97;;
44048;SDS011;29717;47.028;15.470;2022-07-29T09:01:08;3.35;;;3.05;;
44048;SDS011;29717;47.028;15.470;2022-07-29T09:03:37;4.90;;;3.20;;
44048;SDS011;29717;47.028;15.470;2022-07-29T09:06:06;6.00;;;3.00;;
44048;SDS011;29717;47.028;15.470;2022-07-29T09:08:33;4.20;;;2.92;;
44048;SDS011;29717;47.028;15.470;2022-07-29T09:11:01;4.55;;;3.35;;
44048;SDS011;29717;47.028;15.470;2022-07-29T09:13:28;6.22;;;3.65;;
44048;SDS011;29717;47.028;15.470;2022-07-29T09:15:55;6.38;;;3.80;;
44048;SDS011;29717;47.028;15.470;2022-07-29T09:18:35;5.05;;;3.67;;
44048;SDS011;29717;47.028;15.470;2022-07-29T09:21:03;4.20;;;3.78;;
44048;SDS011;29717;47.028;15.470;2022-07-29T09:24:00;4.15;;;3.78;;
44048;SDS011;29717;47.028;15.470;2022-07-29T09:26:29;6.00;;;3.65;;
44048;SDS011;29717;47.028;15.470;2022-07-29T09:28:56;3.83;;;3.53;;
44048;SDS011;29717;47.028;15.470;2022-07-29T09:31:26;4.28;;;3.45;;
44048;SDS011;29717;47.028;15.470;2022-07-29T09:33:58;4.63;;;4.10;;
44048;SDS011;29717;47.028;15.470;2022-07-29T09:36:25;4.20;;;3.83;;
44048;SDS011;29717;47.028;15.470;2022-07-29T09:38:57;4.38;;;3.80;;
44048;SDS011;29717;47.028;15.470;2022-07-29T09:41:25;4.00;;;3.70;;
44048;SDS011;29717;47.028;15.470;2022-07-29T09:43:56;7.47;;;4.13;;
44048;SDS011;29717;47.028;15.470;2022-07-29T09:46:24;5.00;;;3.83;;
44048;SDS011;29717;47.028;15.470;2022-07-29T09:49:06;5.38;;;4.38;;
44048;SDS011;29717;47.028;15.470;2022-07-29T09:51:34;5.22;;;3.80;;
44048;SDS011;29717;47.028;15.470;2022-07-29T09:54:01;5.72;;;4.00;;
44048;SDS011;29717;47.028;15.470;2022-07-29T09:56:39;5.70;;;4.30;;
44048;SDS011;29717;47.028;15.470;2022-07-29T09:59:08;5.75;;;4.13;;
44048;SDS011;29717;47.028;15.470;2022-07-29T10:01:36;4.13;;;3.83;;
44048;SDS011;29717;47.028;15.470;2022-07-29T10:04:03;4.40;;;4.00;;
44048;SDS011;29717;47.028;15.470;2022-07-29T10:06:30;10.38;;;3.65;;
44048;SDS011;29717;47.028;15.470;2022-07-29T10:09:06;4.55;;;3.55;;
44048;SDS011;29717;47.028;15.470;2022-07-29T10:11:33;4.82;;;3.70;;
44048;SDS011;29717;47.028;15.470;2022-07-29T10:14:01;3.78;;;3.08;;
44048;SDS011;29717;47.028;15.470;2022-07-29T10:16:29;4.80;;;3.40;;
44048;SDS011;29717;47.028;15.470;2022-07-29T10:19:00;6.30;;;3.05;;
44048;SDS011;29717;47.028;15.470;2022-07-29T10:21:27;3.83;;;2.83;;
44048;SDS011;29717;47.028;15.470;2022-07-29T10:23:54;4.68;;;3.38;;
44048;SDS011;29717;47.028;15.470;2022-07-29T10:26:23;4.70;;;3.50;;
44048;SDS011;29717;47.028;15.470;2022-07-29T10:28:50;3.60;;;3.30;;
44048;SDS011;29717;47.028;15.470;2022-07-29T10:31:19;3.45;;;3.25;;
44048;SDS011;29717;47.028;15.470;2022-07-29T10:33:55;3.55;;;3.22;;
44048;SDS011;29717;47.028;15.470;2022-07-29T10:36:38;6.72;;;3.80;;
44048;SDS011;29717;47.028;15.470;2022-07-29T10:39:10;5.78;;;3.25;;
44048;SDS011;29717;47.028;15.470;2022-07-29T10:41:46;3.63;;;3.15;;
44048;SDS011;29717;47.028;15.470;2022-07-29T10:44:16;4.70;;;3.50;;
44048;SDS011;29717;47.028;15.470;2022-07-29T10:46:43;4.30;;;3.13;;
44048;SDS011;29717;47.028;15.470;2022-07-29T10:49:13;3.95;;;3.60;;
44048;SDS011;29717;47.028;15.470;2022-07-29T10:52:03;3.92;;;3.38;;
44048;SDS011;29717;47.028;15.470;2022-07-29T10:54:37;3.55;;;3.25;;
44048;SDS011;29717;47.028;15.470;2022-07-29T10:57:10;4.57;;;3.47;;
44048;SDS011;29717;47.028;15.470;2022-07-29T10:59:38;3.78;;;3.47;;
44048;SDS011;29717;47.028;15.470;2022-07-29T11:05:00;4.13;;;3.30;;
44048;SDS011;29717;47.028;15.470;2022-07-29T11:07:29;7.68;;;3.85;;
44048;SDS011;29717;47.028;15.470;2022-07-29T11:12:47;6.05;;;3.35;;
44048;SDS011;29717;47.028;15.470;2022-07-29T11:15:15;4.00;;;2.85;;
44048;SDS011;29717;47.028;15.470;2022-07-29T11:20:34;4.15;;;3.20;;
44048;SDS011;29717;47.028;15.470;2022-07-29T11:23:03;7.85;;;2.90;;
44048;SDS011;29717;47.028;15.470;2022-07-29T11:25:43;3.13;;;2.92;;
44048;SDS011;29717;47.028;15.470;2022-07-29T11:28:10;3.22;;;2.92;;
44048;SDS011;29717;47.028;15.470;2022-07-29T11:30:49;4.32;;;3.33;;
44048;SDS011;29717;47.028;15.470;2022-07-29T11:33:28;6.82;;;3.00;;
44048;SDS011;29717;47.028;15.470;2022-07-29T11:36:10;4.15;;;2.88;;
44048;SDS011;29717;47.028;15.470;2022-07-29T11:38:37;3.55;;;3.25;;
44048;SDS011;29717;47.028;15.470;2022-07-29T11:41:20;2.90;;;2.60;;
44048;SDS011;29717;47.028;15.470;2022-07-29T11:43:48;6.47;;;3.25;;
44048;SDS011;29717;47.028;15.470;2022-07-29T11:46:17;5.10;;;3.17;;
44048;SDS011;29717;47.028;15.470;2022-07-29T11:48:44;4.68;;;2.85;;
44048;SDS011;29717;47.028;15.470;2022-07-29T11:51:13;5.60;;;3.10;;
44048;SDS011;29717;47.028;15.470;2022-07-29T11:53:40;3.85;;;2.78;;
44048;SDS011;29717;47.028;15.470;2022-07-29T11:56:12;5.40;;;3.10;;
44048;SDS011;29717;47.028;15.470;2022-07-29T11:58:40;3.60;;;3.30;;
44048;SDS011;29717;47.028;15.470;2022-07-29T12:01:07;6.72;;;3.00;;
44048;SDS011;29717;47.028;15.470;2022-07-29T12:03:39;7.00;;;3.47;;
44048;SDS011;29717;47.028;15.470;2022-07-29T12:06:11;4.55;;;3.42;;
44048;SDS011;29717;47.028;15.470;2022-07-29T12:08:41;7.85;;;3.00;;
44048;SDS011;29717;47.028;15.470;2022-07-29T12:11:14;5.47;;;3.00;;
44048;SDS011;29717;47.028;15.470;2022-07-29T12:13:41;3.65;;;2.72;;
44048;SDS011;29717;47.028;15.470;2022-07-29T12:16:08;4.00;;;3.13;;
44048;SDS011;29717;47.028;15.470;2022-07-29T12:18:35;3.85;;;2.90;;
44048;SDS011;29717;47.028;15.470;2022-07-29T12:21:02;4.25;;;2.80;;
44048;SDS011;29717;47.028;15.470;2022-07-29T12:23:30;3.53;;;3.03;;
44048;SDS011;29717;47.028;15.470;2022-07-29T12:25:58;8.18;;;3.30;;
44048;SDS011;29717;47.028;15.470;2022-07-29T12:28:25;4.30;;;2.85;;
44048;SDS011;29717;47.028;15.470;2022-07-29T12:30:52;4.80;;;3.30;;
44048;SDS011;29717;47.028;15.470;2022-07-29T12:33:20;3.70;;;3.40;;
44048;SDS011;29717;47.028;15.470;2022-07-29T12:35:48;3.85;;;3.10;;
44048;SDS011;29717;47.028;15.470;2022-07-29T12:38:16;4.30;;;3.10;;
44048;SDS011;29717;47.028;15.470;2022-07-29T12:40:43;4.30;;;3.53;;
44048;SDS011;29717;47.028;15.470;2022-07-29T12:43:13;4.63;;;3.20;;
44048;SDS011;29717;47.028;15.470;2022-07-29T12:45:41;5.85;;;3.10;;
44048;SDS011;29717;47.028;15.470;2022-07-29T12:48:08;8.68;;;3.20;;
44048;SDS011;29717;47.028;15.470;2022-07-29T12:50:35;4.30;;;3.15;;
44048;SDS011;29717;47.028;15.470;2022-07-29T12:53:09;5.90;;;3.28;;
44048;SDS011;29717;47.028;15.470;2022-07-29T12:55:40;6.03;;;3.30;;
44048;SDS011;29717;47.028;15.470;2022-07-29T12:58:07;4.40;;;3.25;;
44048;SDS011;29717;47.028;15.470;2022-07-29T13:00:36;3.35;;;3.00;;
44048;SDS011;29717;47.028;15.470;2022-07-29T13:03:03;7.28;;;3.50;;
44048;SDS011;29717;47.028;15.470;2022-07-29T13:05:40;4.72;;;2.83;;
44048;SDS011;29717;47.028;15.470;2022-07-29T13:08:11;7.15;;;3.38;;
44048;SDS011;29717;47.028;15.470;2022-07-29T13:10:38;5.32;;;3.10;;
44048;SDS011;29717;47.028;15.470;2022-07-29T13:13:06;3.53;;;3.22;;
44048;SDS011;29717;47.028;15.470;2022-07-29T13:15:33;6.65;;;3.20;;
44048;SDS011;29717;47.028;15.470;2022-07-29T13:18:02;4.57;;;3.63;;
44048;SDS011;29717;47.028;15.470;2022-07-29T13:20:29;4.82;;;3.65;;
44048;SDS011;29717;47.028;15.470;2022-07-29T13:22:56;3.65;;;3.22;;
44048;SDS011;29717;47.028;15.470;2022-07-29T13:25:24;5.35;;;3.40;;
44048;SDS011;29717;47.028;15.470;2022-07-29T13:27:52;5.38;;;3.63;;
44048;SDS011;29717;47.028;15.470;2022-07-29T13:30:21;8.77;;;3.97;;
44048;SDS011;29717;47.028;15.470;2022-07-29T13:32:48;6.20;;;3.88;;
44048;SDS011;29717;47.028;15.470;2022-07-29T13:35:16;4.30;;;3.70;;
44048;SDS011;29717;47.028;15.470;2022-07-29T13:37:44;5.30;;;3.80;;
44048;SDS011;29717;47.028;15.470;2022-07-29T13:40:11;6.72;;;3.97;;
44048;SDS011;29717;47.028;15.470;2022-07-29T13:42:39;7.07;;;4.25;;
44048;SDS011;29717;47.028;15.470;2022-07-29T13:45:07;6.32;;;3.80;;
44048;SDS011;29717;47.028;15.470;2022-07-29T13:47:34;5.65;;;3.50;;
44048;SDS011;29717;47.028;15.470;2022-07-29T13:50:01;8.48;;;4.00;;
44048;SDS011;29717;47.028;15.470;2022-07-29T13:52:29;4.95;;;3.47;;
44048;SDS011;29717;47.028;15.470;2022-07-29T13:54:56;7.65;;;3.72;;
44048;SDS011;29717;47.028;15.470;2022-07-29T13:57:23;7.30;;;4.03;;
44048;SDS011;29717;47.028;15.470;2022-07-29T13:59:50;9.45;;;6.32;;
44048;SDS011;29717;47.028;15.470;2022-07-29T14:02:17;9.15;;;5.22;;
44048;SDS011;29717;47.028;15.470;2022-07-29T14:04:44;4.70;;;3.90;;
44048;SDS011;29717;47.028;15.470;2022-07-29T14:07:11;5.55;;;4.18;;
44048;SDS011;29717;47.028;15.470;2022-07-29T14:09:40;15.43;;;8.45;;
44048;SDS011;29717;47.028;15.470;2022-07-29T14:12:07;27.75;;;17.88;;
44048;SDS011;29717;47.028;15.470;2022-07-29T14:14:34;9.07;;;5.40;;
44048;SDS011;29717;47.028;15.470;2022-07-29T14:17:02;4.70;;;3.70;;
44048;SDS011;29717;47.028;15.470;2022-07-29T14:19:31;8.25;;;4.18;;
44048;SDS011;29717;47.028;15.470;2022-07-29T14:22:01;5.30;;;3.65;;
44048;SDS011;29717;47.028;15.470;2022-07-29T14:24:28;5.13;;;3.35;;
44048;SDS011;29717;47.028;15.470;2022-07-29T14:26:56;5.25;;;3.63;;
44048;SDS011;29717;47.028;15.470;2022-07-29T14:29:23;3.95;;;3.65;;
44048;SDS011;29717;47.028;15.470;2022-07-29T14:31:50;3.85;;;3.55;;
44048;SDS011;29717;47.028;15.470;2022-07-29T14:34:17;3.90;;;3.50;;
44048;SDS011;29717;47.028;15.470;2022-07-29T14:36:44;4.80;;;3.33;;
44048;SDS011;29717;47.028;15.470;2022-07-29T14:39:11;4.82;;;3.70;;
44048;SDS011;29717;47.028;15.470;2022-07-29T14:41:38;4.13;;;3.60;;
44048;SDS011;29717;47.028;15.470;2022-07-29T14:44:06;6.88;;;3.60;;
44048;SDS011;29717;47.028;15.470;2022-07-29T14:46:33;6.05;;;3.95;;
44048;SDS011;29717;47.028;15.470;2022-07-29T14:49:00;5.45;;;3.63;;
44048;SDS011;29717;47.028;15.470;2022-07-29T14:51:27;9.38;;;3.65;;
44048;SDS011;29717;47.028;15.470;2022-07-29T14:53:54;4.88;;;3.40;;
44048;SDS011;29717;47.028;15.470;2022-07-29T14:56:21;6.53;;;3.60;;
44048;SDS011;29717;47.028;15.470;2022-07-29T14:58:48;9.77;;;4.18;;
44048;SDS011;29717;47.028;15.470;2022-07-29T15:01:17;7.03;;;4.20;;
44048;SDS011;29717;47.028;15.470;2022-07-29T15:03:43;4.25;;;3.85;;
44048;SDS011;29717;47.028;15.470;2022-07-29T15:06:11;4.88;;;3.88;;
44048;SDS011;29717;47.028;15.470;2022-07-29T15:08:38;5.07;;;3.78;;
44048;SDS011;29717;47.028;15.470;2022-07-29T15:11:05;6.70;;;3.30;;
44048;SDS011;29717;47.028;15.470;2022-07-29T15:13:32;3.88;;;3.28;;
44048;SDS011;29717;47.028;15.470;2022-07-29T15:15:59;6.78;;;3.35;;
44048;SDS011;29717;47.028;15.470;2022-07-29T15:18:28;11.60;;;4.07;;
44048;SDS011;29717;47.028;15.470;2022-07-29T15:20:55;4.53;;;3.45;;
44048;SDS011;29717;47.028;15.470;2022-07-29T15:23:22;4.25;;;3.70;;
44048;SDS011;29717;47.028;15.470;2022-07-29T15:25:49;3.50;;;3.22;;
44048;SDS011;29717;47.028;15.470;2022-07-29T15:28:16;5.95;;;3.53;;
44048;SDS011;29717;47.028;15.470;2022-07-29T15:30:43;4.88;;;3.65;;
44048;SDS011;29717;47.028;15.470;2022-07-29T15:33:10;3.55;;;3.25;;
44048;SDS011;29717;47.028;15.470;2022-07-29T15:35:38;4.25;;;3.85;;
44048;SDS011;29717;47.028;15.470;2022-07-29T15:38:05;7.10;;;3.97;;
44048;SDS011;29717;47.028;15.470;2022-07-29T15:40:31;4.97;;;3.83;;
44048;SDS011;29717;47.028;15.470;2022-07-29T15:42:58;4.13;;;3.55;;
44048;SDS011;29717;47.028;15.470;2022-07-29T15:45:34;6.10;;;3.90;;